Nearby METAR Reports

 

KIAD - Wash Dc/Dulles, Virginia, USA
Distance from station: ESE 7mi, 11km
Updated: Fri, 23-Apr-2021 11:52am EDT
Few Clouds
Few Clouds
 Wind from WNW
Wind: WNW 14 mph , 22 km/h, Gust: 21 mph , 33 km/h
Temperature: 57°F , 14°C
Dew Point: 27°F , -3°C
Humidity: 31%
Barometer: 30.14 inHg , 1020.7 hPa
Clouds: Few Clouds
Visibility: 10 miles , 16 km
Cloud details: Few Clouds 25000 ft
2021/04/23 15:52 KIAD 231552Z 29012G18KT 10SM FEW250 14/M03 A3014 RMK AO2 SLP206 T01391028
KJYO - Leesburg/Godfrey, Virginia, USA
Distance from station: N 7mi, 12km
Updated: Fri, 23-Apr-2021 12:35pm EDT
Clear
Clear
 Wind from WSW
Wind: WSW 13 mph , 20 km/h, Gust: 18 mph , 30 km/h
Temperature: 59°F , 15°C
Dew Point: 32°F , 0°C
Humidity: 36%
Barometer: 30.13 inHg , 1020.3 hPa
Clouds: Clear
Visibility: 10 miles , 16 km
2021/04/23 16:35 KJYO 231635Z AUTO 24011G16KT 10SM CLR 15/00 A3013 RMK AO2
KHEF - Manassas Muni, Virginia, USA
Distance from station: S 17mi, 28km
Updated: Fri, 23-Apr-2021 11:56am EDT
Clear
Clear
 Wind from varies
Wind: varies 7 mph , 11 km/h
Temperature: 55°F , 13°C
Dew Point: 27°F , -3°C
Humidity: 33%
Barometer: 30.16 inHg , 1021.3 hPa
Clouds: Clear
Visibility: 10 miles , 16 km
2021/04/23 15:56 KHEF 231556Z VRB06KT 10SM CLR 13/M03 A3016 RMK AO2 SLP218 T01331033
 
KGAI - Gaithersburg, Maryland, USA
Distance from station: NE 26mi, 41km
Updated: Fri, 23-Apr-2021 11:56am EDT
Clear
Clear
 Wind from WSW
Wind: WSW 14 mph , 22 km/h, Gust: 20 mph , 31 km/h
Temperature: 57°F , 14°C
Dew Point: 28°F , -2°C
Humidity: 33%
Barometer: 30.14 inHg , 1020.7 hPa
Clouds: Clear
Visibility: 10 miles , 16 km
2021/04/23 15:56 KGAI 231556Z AUTO 25012G17KT 10SM CLR 14/M02 A3014 RMK AO2 SLP220 T01391017
KDAA - Fort Belvoir/Dav, Virginia, USA
Distance from station: SE 27mi, 44km
Updated: Fri, 23-Apr-2021 11:56am EDT
Clear
Clear
 Wind from WNW
Wind: WNW 7 mph , 11 km/h
Temperature: 59°F , 15°C
Dew Point: 27°F , -3°C
Humidity: 29%
Barometer: 30.15 inHg , 1021 hPa
Clouds: Clear
Visibility: 10 miles , 16 km
2021/04/23 15:56 KDAA 231556Z AUTO 29006KT 10SM CLR 15/M03 A3015 RMK AO2 SLP213 T01471027 $
KHWY - Warrenton, Virginia, USA
Distance from station: SSW 27mi, 44km
Updated: Fri, 23-Apr-2021 12:35pm EDT
Clear
Clear
 Wind from W
Wind: W 3 mph , 6 km/h
Temperature: 59°F , 15°C
Dew Point: 23°F , -5°C
Humidity: 25%
Barometer: 30.14 inHg , 1020.7 hPa
Clouds: Clear
Visibility: 10 miles , 16 km
2021/04/23 16:35 KHWY 231635Z AUTO 27003KT 10SM CLR 15/M05 A3014 RMK AO2 T01471048
 
KDCA - Washington/Natl, Washington D.c., USA
Distance from station: ESE 30mi, 48km
Updated: Fri, 23-Apr-2021 11:52am EDT
Few Clouds
Few Clouds
 Wind from WSW
Wind: WSW 9 mph , 15 km/h, Gust: 21 mph , 33 km/h
Temperature: 57°F , 14°C
Dew Point: 27°F , -3°C
Humidity: 31%
Barometer: 30.15 inHg , 1021 hPa
Clouds: Few Clouds
Visibility: 10 miles , 16 km
Cloud details: Few Clouds 25000 ft
2021/04/23 15:52 KDCA 231552Z 25008G18KT 10SM FEW250 14/M03 A3015 RMK AO2 SLP210 T01441028
KFDK - Frederick, Maryland, USA
Distance from station: NNE 33mi, 53km
Updated: Fri, 23-Apr-2021 11:47am EDT
Clear
Clear
 Wind from W
Wind: W 14 mph , 22 km/h, Gust: 20 mph , 31 km/h
Temperature: 57°F , 14°C
Dew Point: 28°F , -2°C
Humidity: 33%
Barometer: 30.14 inHg , 1020.7 hPa
Clouds: Clear
Visibility: 10 miles , 16 km
2021/04/23 15:47 KFDK 231547Z 27012G17KT 10SM CLR 14/M02 A3014
KOKV - Winchester Rgnl, Virginia, USA
Distance from station: WNW 33mi, 54km
Updated: Fri, 23-Apr-2021 12:35pm EDT
Clear
Clear
 Wind from W
Wind: W 6 mph , 9 km/h
Temperature: 57°F , 14°C
Dew Point: 28°F , -2°C
Humidity: 33%
Barometer: 30.10 inHg , 1019.3 hPa
Clouds: Clear
Visibility: 10 miles , 16 km
2021/04/23 16:35 KOKV 231635Z AUTO 28005KT 10SM CLR 14/M02 A3010 RMK AO2
 
KCJR - Culpeper, Virginia, USA
Distance from station: SSW 34mi, 54km
Updated: Fri, 23-Apr-2021 12:35pm EDT
Clear
Clear
 Wind from calm
Wind: Calm
Temperature: 59°F , 15°C
Dew Point: 25°F , -4°C
Humidity: 27%
Barometer: 30.15 inHg , 1021 hPa
Clouds: Clear
Visibility: 10 miles , 16 km
2021/04/23 16:35 KCJR 231635Z AUTO 00000KT 10SM CLR 15/M04 A3015 RMK AO2 T01471036
KCGS - College Park, Maryland, USA
Distance from station: E 35mi, 56km
Updated: Fri, 23-Apr-2021 12:35pm EDT
Clear
Clear
 Wind from WSW
Wind: WSW 5 mph , 7 km/h, Gust: 16 mph , 26 km/h
Temperature: 57°F , 14°C
Dew Point: 23°F , -5°C
Humidity: 27%
Barometer: 30.12 inHg , 1020 hPa
Clouds: Clear
Visibility: 10 miles , 16 km
2021/04/23 16:35 KCGS 231635Z AUTO 24004G14KT 10SM CLR 14/M05 A3012 RMK AO1 T01361052
KNYG - Quantico Mcaf, Virginia, USA
Distance from station: SSE 35mi, 57km
Updated: Fri, 23-Apr-2021 11:56am EDT
Clear
Clear
 Wind from SW
Wind: SW 9 mph , 15 km/h
Temperature: 57°F , 14°C
Dew Point: 27°F , -3°C
Humidity: 31%
Barometer: 30.17 inHg , 1021.7 hPa
Clouds: Clear
Visibility: 10 miles , 16 km
2021/04/23 15:56 KNYG 231556Z 22008KT 180V260 10SM CLR 14/M03 A3017 RMK AO2 SLP217 T01441033
 
KFRR - Fort Royal, Virginia, USA
Distance from station: W 37mi, 59km
Updated: Fri, 23-Apr-2021 12:35pm EDT
Clear
Clear
 Wind from SW
Wind: SW 9 mph , 15 km/h
Temperature: 55°F , 13°C
Dew Point: 30°F , -1°C
Humidity: 38%
Barometer: 30.11 inHg , 1019.6 hPa
Clouds: Clear
Visibility: 10 miles , 16 km
2021/04/23 16:35 KFRR 231635Z AUTO 22008KT 200V270 10SM CLR 13/M01 A3011 RMK AO1
KMRB - Martinsburg, West Virginia, USA
Distance from station: NW 38mi, 61km
Updated: Fri, 23-Apr-2021 11:53am EDT
Clear
Clear
 Wind from W
Wind: W 13 mph , 20 km/h, Gust: 21 mph , 33 km/h
Temperature: 57°F , 14°C
Dew Point: 27°F , -3°C
Humidity: 31%
Barometer: 30.11 inHg , 1019.6 hPa
Clouds: Clear
Visibility: 10 miles , 16 km
2021/04/23 15:53 KMRB 231553Z 26011G18KT 10SM CLR 14/M03 A3011 RMK AO2 SLP196 T01391033
KADW - Andrews Afb, Maryland, USA
Distance from station: ESE 39mi, 63km
Updated: Fri, 23-Apr-2021 11:56am EDT
Few Clouds
Few Clouds
 Wind from W
Wind: W 9 mph , 15 km/h
Temperature: 55°F , 13°C
Dew Point: 27°F , -3°C
Humidity: 33%
Barometer: 30.13 inHg , 1020.3 hPa
Clouds: Few Clouds
Visibility: 10 miles , 16 km
Cloud details: Few Clouds 17000 ft
Few Clouds 21000 ft
2021/04/23 15:56 KADW 231556Z AUTO 27008KT 10SM FEW170 FEW210 13/M03 A3013 RMK AO2 SLP211 T01331026 $
 
KRMN - Stafford Regnl, Virginia, USA
Distance from station: S 39mi, 63km
Updated: Fri, 23-Apr-2021 12:35pm EDT
Clear
Clear
 Wind from WNW
Wind: WNW 3 mph , 6 km/h, Gust: 17 mph , 28 km/h
Temperature: 59°F , 15°C
Dew Point: 5°F , -15°C
Humidity: 11%
Barometer: 30.18 inHg , 1022 hPa
Clouds: Clear
Visibility: 10 miles , 16 km
2021/04/23 16:35 KRMN 231635Z AUTO 29003G15KT 10SM CLR 15/M15 A3018 RMK AO2 T01481146
KFME - Fort Meade, Maryland, USA
Distance from station: ENE 44mi, 70km
Updated: Fri, 23-Apr-2021 12:35pm EDT
Clear
Clear
 Wind from WSW
Wind: WSW 14 mph , 22 km/h, Gust: 20 mph , 31 km/h
Temperature: 59°F , 15°C
Dew Point: 30°F , -1°C
Humidity: 34%
Barometer: 30.13 inHg , 1020.3 hPa
Clouds: Clear
Visibility: 10 miles , 16 km
2021/04/23 16:35 KFME 231635Z AUTO 24012G17KT 200V260 10SM CLR 15/M01 A3013 RMK AO1
KRSP - Nsf Thurmont, Maryland, USA
Distance from station: N 48mi, 77km
Updated: Fri, 23-Apr-2021 11:54am EDT
Clear
Clear
 Wind from WSW
Wind: WSW 15 mph , 24 km/h, Gust: 23 mph , 37 km/h
Temperature: 48°F , 9°C
Wind Chill: 42°F , 6°C
Dew Point: 25°F , -4°C
Humidity: 40%
Barometer: 30.08 inHg , 1018.6 hPa
Clouds: Clear
Visibility: 10 miles , 16 km
2021/04/23 15:54 KRSP 231554Z AUTO 25013G20KT 10SM CLR 09/M04 A3008 RMK AO2 SLP199 T00941044 TSNO PNO $
 
KEZF - Fredericksb/Shan, Virginia, USA
Distance from station: S 48mi, 78km
Updated: Fri, 23-Apr-2021 12:35pm EDT
Clear
Clear
 Wind from SW
Wind: SW 8 mph , 13 km/h
Temperature: 57°F , 14°C
Dew Point: 25°F , -4°C
Humidity: 29%
Barometer: 30.14 inHg , 1020.7 hPa
Clouds: Clear
Visibility: 10 miles , 16 km
2021/04/23 16:35 KEZF 231635Z AUTO 22007KT 200V270 10SM CLR 14/M04 A3014 RMK AO2 T01411038
KBWI - Balto/Wash Intl, Maryland, USA
Distance from station: ENE 49mi, 80km
Updated: Fri, 23-Apr-2021 11:54am EDT
Few Clouds
Few Clouds
 Wind from W
Wind: W 18 mph , 30 km/h, Gust: 28 mph , 44 km/h
Temperature: 57°F , 14°C
Dew Point: 28°F , -2°C
Humidity: 33%
Barometer: 30.12 inHg , 1020 hPa
Clouds: Few Clouds
Visibility: 10 miles , 16 km
Cloud details: Few Clouds 25000 ft
2021/04/23 15:54 KBWI 231554Z 27016G24KT 10SM FEW250 14/M02 A3012 RMK AO2 SLP199 T01441022